International Virtual Aviation Organisation

Russian Federation and Kazakhstan MCD

 

Карточка аэропорта UUDD

Внимание!
Информация на этой странице в стадии наполнения.
Если вы не увидели какой-то информации, или заметили неточность - пожалуйста сообщите нам!
Спасибо!
Команда RU-STAFF
Название аэропортаДомодедово
Название аэропорта (англ.)Domodedovo
Превышение594 ft. (181.1 m.)
Координаты55°24.516', 37°54.384'
Высота перехода1200 m
Эшелон переходаBy ATC
Коды ответчика1540-1577
Зона ОрВДМосква РПИ (UUWV)
Данные METARUUDD 212100Z 22002MPS 170V250 CAVOK 17/08 Q1015 R88/70D NOSIG
Проноз погоды (TAF)UUDD 211959Z 2121/2303 23003MPS 9999 SCT040 TX25/2212Z TN12/2201Z TEMPO 2209/2303 25008MPS -SHRA SCT030CB PROB40 TEMPO 2212/2303 -TSRA BKN030CB
NOTAMshow/hide NOTAM
AWOS   TABLE

Информация о ВПП

ВПП Длина ВПП (м.) Покрытие Курс ВПП Частота ILS
14L3793Бетон136108.5
32R3793Бетон316111.9
14R3500Цементобетон136110.1
32L3500Цементобетон316109.3

Диспетчерские позиции

Позывной Наименование органа УВД Частота
UUDD_GNDДомодедово-Перрон119.000
UUDD_R_APPДомодедово-Круг127.700
UUDD_TWRДомодедово-Вышка119.700
UUDD_DELДомодедово-Деливери 129.150
UUDDFM1Машина сопровождения119.000



Спутниковое изображение